createdAt,value
2018-04-23T00:02:22.427Z,95969.89
2018-04-23T00:04:49.929Z,95970.97
2018-04-23T00:07:17.465Z,95964.06
2018-04-23T00:09:45.127Z,95962.80
2018-04-23T00:12:12.775Z,95959.72
2018-04-23T00:14:40.394Z,95960.22
2018-04-23T00:17:08.389Z,95955.21
2018-04-23T00:19:36.024Z,95951.87
2018-04-23T00:22:03.652Z,95959.84
2018-04-23T00:24:32.139Z,95948.61
2018-04-23T00:26:59.764Z,95948.42
2018-04-23T00:29:28.945Z,95953.08
2018-04-23T00:31:56.563Z,95946.48
2018-04-23T00:34:24.092Z,95951.02
2018-04-23T00:36:52.100Z,95949.84
2018-04-23T00:39:19.645Z,95949.22
2018-04-23T00:41:47.169Z,95949.13
2018-04-23T00:44:14.744Z,95950.87
2018-04-23T00:46:42.465Z,95946.99
2018-04-23T00:49:10.004Z,95952.69
2018-04-23T00:51:37.553Z,95943.41
2018-04-23T00:54:05.065Z,95943.31
2018-04-23T00:56:32.637Z,95942.20
2018-04-23T00:59:00.212Z,95942.00
2018-04-23T01:01:27.750Z,95938.44
2018-04-23T01:03:55.316Z,95940.72
2018-04-23T01:06:22.845Z,95947.02
2018-04-23T01:08:50.458Z,95940.39
2018-04-23T01:11:18.053Z,95939.99
2018-04-23T01:13:45.760Z,95945.50
2018-04-23T01:16:13.310Z,95934.61
2018-04-23T01:18:40.952Z,95936.42
2018-04-23T01:21:08.538Z,95927.66
2018-04-23T01:23:36.066Z,95928.94
2018-04-23T01:26:03.640Z,95926.25
2018-04-23T01:28:31.163Z,95932.63
2018-04-23T01:30:58.711Z,95931.59
2018-04-23T01:33:26.227Z,95935.09
2018-04-23T01:35:53.748Z,95934.00
2018-04-23T01:38:21.652Z,95929.73
2018-04-23T01:40:49.170Z,95937.51
2018-04-23T01:43:17.955Z,95933.17
2018-04-23T01:45:45.517Z,95938.59
2018-04-23T01:48:18.128Z,95931.47
2018-04-23T01:50:50.320Z,95935.23
2018-04-23T01:53:23.064Z,95936.42
2018-04-23T01:55:55.320Z,95933.23
2018-04-23T01:58:29.972Z,95941.56
2018-04-23T02:01:02.394Z,95936.16
2018-04-23T02:03:35.149Z,95937.47
2018-04-23T02:06:07.607Z,95940.93
2018-04-23T02:08:39.912Z,95937.85
2018-04-23T02:11:11.612Z,95948.81
2018-04-23T02:13:44.175Z,95934.55
2018-04-23T02:16:17.262Z,95939.02
2018-04-23T02:18:49.404Z,95937.27
2018-04-23T02:21:22.293Z,95938.66
2018-04-23T02:23:55.775Z,95932.78
2018-04-23T02:26:29.009Z,95930.47
2018-04-23T02:29:03.855Z,95926.30
2018-04-23T02:31:38.238Z,95929.28
2018-04-23T02:34:11.032Z,95926.40
2018-04-23T02:36:43.373Z,95935.25
2018-04-23T02:39:16.422Z,95932.83
2018-04-23T02:41:48.642Z,95929.11
2018-04-23T02:44:21.109Z,95927.62
2018-04-23T02:46:53.916Z,95932.10
2018-04-23T02:49:28.725Z,95932.72
2018-04-23T02:52:04.382Z,95928.20
2018-04-23T02:54:39.699Z,95927.54
2018-04-23T02:57:11.967Z,95923.87
2018-04-23T02:59:44.639Z,95926.96
2018-04-23T03:02:17.425Z,95923.43
2018-04-23T03:04:47.028Z,95921.12
2018-04-23T03:07:14.886Z,95919.83
2018-04-23T03:09:42.889Z,95919.41
2018-04-23T03:12:10.797Z,95917.53
2018-04-23T03:14:38.355Z,95922.36
2018-04-23T03:17:06.067Z,95918.61
2018-04-23T03:19:33.582Z,95920.08
2018-04-23T03:22:01.149Z,95915.87
2018-04-23T03:24:28.681Z,95914.04
2018-04-23T03:26:56.190Z,95916.88
2018-04-23T03:29:24.008Z,95915.50
2018-04-23T03:31:52.328Z,95921.02
2018-04-23T03:34:20.179Z,95913.81
2018-04-23T03:36:47.717Z,95910.20
2018-04-23T03:39:16.431Z,95917.51
2018-04-23T03:41:44.032Z,95914.26
2018-04-23T03:44:11.673Z,95917.16
2018-04-23T03:46:39.302Z,95914.42
2018-04-23T03:49:06.953Z,95921.64
2018-04-23T03:51:35.283Z,95915.56
2018-04-23T03:56:34.509Z,95920.17
2018-04-23T03:59:02.031Z,95919.25
2018-04-23T04:01:29.585Z,95910.17
2018-04-23T04:03:57.109Z,95916.89
2018-04-23T04:06:24.744Z,95916.64
2018-04-23T04:08:52.295Z,95917.14
2018-04-23T04:11:19.839Z,95918.30
2018-04-23T04:20:42.170Z,95922.09
2018-04-23T04:23:09.740Z,95928.03
2018-04-23T04:25:37.338Z,95922.63
2018-04-23T04:28:04.940Z,95929.63
2018-04-23T04:30:32.557Z,95931.58
2018-04-23T04:33:00.121Z,95933.48
2018-04-23T04:35:27.718Z,95926.70
2018-04-23T04:37:55.218Z,95932.59
2018-04-23T04:40:22.744Z,95930.59
2018-04-23T04:42:50.282Z,95931.36
2018-04-23T04:45:17.782Z,95936.73
2018-04-23T04:47:45.334Z,95932.26
2018-04-23T04:50:13.724Z,95935.08
2018-04-23T04:52:42.167Z,95938.02
2018-04-23T04:55:11.505Z,95941.08
2018-04-23T04:57:39.058Z,95937.36
2018-04-23T05:00:06.655Z,95943.97
2018-04-23T05:02:34.385Z,95948.72
2018-04-23T05:05:02.045Z,95944.93
2018-04-23T05:07:35.125Z,95938.33
2018-04-23T05:10:02.776Z,95939.27
2018-04-23T05:12:30.476Z,95941.48
2018-04-23T05:14:58.152Z,95936.55
2018-04-23T05:17:26.049Z,95938.81
2018-04-23T05:19:53.716Z,95938.03
2018-04-23T05:22:21.324Z,95936.99
2018-04-23T05:24:48.971Z,95942.88
2018-04-23T05:27:16.579Z,95942.66
2018-04-23T05:29:44.305Z,95943.17
2018-04-23T05:32:11.942Z,95939.64
2018-04-23T05:34:39.508Z,95941.19
2018-04-23T05:37:07.378Z,95939.55
2018-04-23T05:39:36.085Z,95943.39
2018-04-23T05:42:03.898Z,95944.11
2018-04-23T05:44:31.594Z,95941.23
2018-04-23T05:46:59.182Z,95947.75
2018-04-23T05:49:26.918Z,95941.72
2018-04-23T05:51:54.602Z,95941.42
2018-04-23T05:54:22.261Z,95943.36
2018-04-23T05:56:49.931Z,95947.29
2018-04-23T05:59:17.633Z,95950.16
2018-04-23T06:01:45.235Z,95943.30
2018-04-23T06:06:39.820Z,95944.53
2018-04-23T06:09:07.482Z,95948.18
2018-04-23T06:11:35.023Z,95945.70
2018-04-23T06:14:02.662Z,95943.91
2018-04-23T06:16:30.377Z,95948.44
2018-04-23T06:18:58.825Z,95945.20
2018-04-23T06:21:26.382Z,95945.52
2018-04-23T06:23:53.953Z,95948.41
2018-04-23T06:26:21.485Z,95946.48
2018-04-23T06:28:49.044Z,95949.52
2018-04-23T06:31:16.584Z,95942.92
2018-04-23T06:33:44.165Z,95948.09
2018-04-23T06:36:11.678Z,95944.70
2018-04-23T06:38:39.194Z,95953.82
2018-04-23T06:41:06.751Z,95956.61
2018-04-23T06:43:34.265Z,95941.01
2018-04-23T06:46:01.794Z,95943.90
2018-04-23T06:48:29.305Z,95947.55
2018-04-23T06:50:56.954Z,95938.27
2018-04-23T06:53:26.565Z,95937.11
2018-04-23T06:55:54.144Z,95944.25
2018-04-23T06:58:21.805Z,95941.53
2018-04-23T07:00:49.568Z,95939.98
2018-04-23T07:03:17.200Z,95944.37
2018-04-23T07:05:44.870Z,95943.53
2018-04-23T07:08:12.574Z,95939.89
2018-04-23T07:10:40.519Z,95940.55
2018-04-23T07:13:08.158Z,95950.98
2018-04-23T07:15:35.741Z,95948.33
2018-04-23T07:18:03.352Z,95952.09
2018-04-23T07:20:31.045Z,95955.66
2018-04-23T07:22:58.636Z,95956.52
2018-04-23T07:25:26.166Z,95961.77
2018-04-23T07:27:53.745Z,95969.42
2018-04-23T07:30:21.420Z,95967.90
2018-04-23T07:32:49.021Z,95971.54
2018-04-23T07:35:17.307Z,95976.27
2018-04-23T07:37:44.847Z,95975.86
2018-04-23T07:40:12.393Z,95976.59
2018-04-23T07:42:40.043Z,95974.31
2018-04-23T07:45:07.643Z,95985.09
2018-04-23T07:47:35.238Z,95976.73
2018-04-23T07:50:02.871Z,95982.36
2018-04-23T07:52:30.457Z,95982.28
2018-04-23T07:54:58.123Z,95980.28
2018-04-23T07:57:26.013Z,95987.14
2018-04-23T07:59:53.734Z,95985.83
2018-04-23T08:02:22.177Z,95987.48
2018-04-23T08:04:49.895Z,95984.66
2018-04-23T08:07:17.537Z,95987.75
2018-04-23T08:09:45.229Z,95992.39
2018-04-23T08:14:46.556Z,95989.47
2018-04-23T08:17:14.072Z,95993.59
2018-04-23T08:19:41.702Z,95989.46
2018-04-23T08:22:09.352Z,96000.85
2018-04-23T08:24:37.013Z,95992.98
2018-04-23T08:27:04.640Z,95996.02
2018-04-23T08:29:32.236Z,95999.45
2018-04-23T08:31:59.925Z,95994.20
2018-04-23T08:34:27.648Z,95999.20
2018-04-23T08:36:55.331Z,95993.88
2018-04-23T08:39:23.596Z,96001.06
2018-04-23T08:41:51.353Z,95995.39
2018-04-23T08:44:18.928Z,95999.75
2018-04-23T08:46:46.508Z,95991.89
2018-04-23T08:49:14.174Z,95992.58
2018-04-23T08:51:41.827Z,95994.83
2018-04-23T08:54:09.435Z,95997.73
2018-04-23T08:56:37.028Z,95991.80
2018-04-23T08:59:04.672Z,95996.94
2018-04-23T09:01:32.246Z,95998.63
2018-04-23T09:03:59.858Z,96002.03
2018-04-23T09:06:27.642Z,96005.52
2018-04-23T09:08:55.318Z,96006.92
2018-04-23T09:11:22.967Z,96003.36
2018-04-23T09:13:50.582Z,96006.02
2018-04-23T09:16:18.212Z,96009.95
2018-04-23T09:18:45.805Z,96002.50
2018-04-23T09:21:14.901Z,96007.34
2018-04-23T09:23:42.561Z,96009.30
2018-04-23T09:26:10.138Z,96005.70
2018-04-23T09:28:37.728Z,95999.77
2018-04-23T09:31:05.411Z,96007.30
2018-04-23T09:33:33.096Z,96000.27
2018-04-23T09:36:00.740Z,95996.23
2018-04-23T09:38:28.481Z,95999.36
2018-04-23T09:40:56.020Z,96005.20
2018-04-23T09:43:23.547Z,96000.42
2018-04-23T09:45:51.060Z,95998.01
2018-04-23T09:48:18.650Z,96000.06
2018-04-23T09:50:46.195Z,96001.63
2018-04-23T09:53:13.705Z,96000.30
2018-04-23T09:55:41.242Z,95998.02
2018-04-23T09:58:08.769Z,95999.64
2018-04-23T10:00:36.347Z,95997.82
2018-04-23T10:03:11.293Z,95989.59
2018-04-23T10:05:41.831Z,95991.55
2018-04-23T10:08:09.365Z,95986.16
2018-04-23T10:10:37.026Z,95986.07
2018-04-23T10:13:04.637Z,95980.62
2018-04-23T10:15:32.347Z,95981.44
2018-04-23T10:17:59.967Z,95985.63
2018-04-23T10:20:27.555Z,95982.20
2018-04-23T10:25:27.810Z,95972.50
2018-04-23T10:27:55.414Z,95980.27
2018-04-23T10:30:22.956Z,95971.95
2018-04-23T10:32:50.523Z,95969.45
2018-04-23T10:35:18.260Z,95971.09
2018-04-23T10:37:45.924Z,95973.86
2018-04-23T10:40:13.540Z,95970.49
2018-04-23T10:42:41.322Z,95973.52
2018-04-23T10:45:08.946Z,95971.63
2018-04-23T10:47:36.626Z,95958.49
2018-04-23T10:50:04.348Z,95958.58
2018-04-23T10:52:32.964Z,95956.30
2018-04-23T10:55:00.533Z,95963.35
2018-04-23T10:57:28.164Z,95959.43
2018-04-23T10:59:55.806Z,95956.70
2018-04-23T11:02:23.409Z,95959.56
2018-04-23T11:04:51.066Z,95967.77
2018-04-23T11:07:18.680Z,95965.27
2018-04-23T11:09:46.281Z,95960.10
2018-04-23T11:12:13.893Z,95967.81
2018-04-23T11:14:41.463Z,95956.36
2018-04-23T11:17:09.170Z,95959.00
2018-04-23T11:19:36.823Z,95960.15
2018-04-23T11:22:04.449Z,95955.28
2018-04-23T11:24:32.151Z,95960.05
2018-04-23T11:26:59.739Z,95958.30
2018-04-23T11:29:27.383Z,95954.98
2018-04-23T11:31:55.015Z,95949.58
2018-04-23T11:34:22.655Z,95955.73
2018-04-23T11:36:50.157Z,95961.59
2018-04-23T11:39:18.438Z,95952.62
2018-04-23T11:41:46.015Z,95949.44
2018-04-23T11:44:13.602Z,95951.50
2018-04-23T11:46:41.505Z,95949.55
2018-04-23T11:49:09.051Z,95953.05
2018-04-23T11:51:36.621Z,95940.00
2018-04-23T11:54:04.130Z,95955.78
2018-04-23T11:56:31.643Z,95947.99
2018-04-23T11:58:59.191Z,95947.13
2018-04-23T12:01:26.915Z,95927.52
2018-04-23T12:03:54.554Z,95936.52
2018-04-23T12:06:22.099Z,95947.22
2018-04-23T12:08:49.716Z,95948.95
2018-04-23T12:13:50.962Z,95934.12
2018-04-23T12:16:18.553Z,95928.91
2018-04-23T12:18:46.142Z,95926.61
2018-04-23T12:21:13.940Z,95929.81
2018-04-23T12:23:41.590Z,95924.56
2018-04-23T12:26:09.192Z,95915.58
2018-04-23T12:28:36.775Z,95914.64
2018-04-23T12:31:04.996Z,95916.20
2018-04-23T12:33:32.589Z,95916.41
2018-04-23T12:36:00.107Z,95916.98
2018-04-23T12:38:27.817Z,95908.59
2018-04-23T12:43:29.185Z,95907.24
2018-04-23T12:45:56.772Z,95894.34
2018-04-23T12:48:24.329Z,95882.75
2018-04-23T12:50:51.927Z,95882.84
2018-04-23T12:53:19.957Z,95880.61
2018-04-23T12:55:47.692Z,95871.94
2018-04-23T12:58:15.288Z,95868.30
2018-04-23T13:00:43.037Z,95865.48
2018-04-23T13:03:11.400Z,95864.95
2018-04-23T13:05:54.901Z,95864.81
2018-04-23T13:08:22.676Z,95864.53
2018-04-23T13:10:50.319Z,95862.52
2018-04-23T13:13:17.936Z,95870.31
2018-04-23T13:15:45.676Z,95860.04
2018-04-23T13:18:13.259Z,95852.02
2018-04-23T13:20:40.897Z,95867.02
2018-04-23T13:23:08.425Z,95862.57
2018-04-23T13:25:36.480Z,95861.01
2018-04-23T13:28:04.178Z,95848.72
2018-04-23T13:30:31.780Z,95853.84
2018-04-23T13:32:59.364Z,95849.52
2018-04-23T13:35:26.989Z,95849.42
2018-04-23T13:37:54.713Z,95844.33
2018-04-23T13:40:22.292Z,95846.27
2018-04-23T13:42:49.862Z,95849.21
2018-04-23T13:45:19.241Z,95849.05
2018-04-23T13:47:47.873Z,95837.05
2018-04-23T13:50:16.615Z,95838.26
2018-04-23T13:52:44.205Z,95840.61
2018-04-23T13:55:12.044Z,95837.52
2018-04-23T13:57:39.575Z,95844.35
2018-04-23T14:00:07.105Z,95835.57
2018-04-23T14:02:34.651Z,95831.40
2018-04-23T14:05:02.580Z,95841.30
2018-04-23T14:07:30.508Z,95839.81
2018-04-23T14:09:58.119Z,95832.29
2018-04-23T14:12:26.050Z,95822.77
2018-04-23T14:14:53.651Z,95828.77
2018-04-23T14:17:21.277Z,95821.64
2018-04-23T14:19:48.977Z,95824.23
2018-04-23T14:22:16.664Z,95828.84
2018-04-23T14:24:44.200Z,95823.81
2018-04-23T14:27:11.873Z,95823.09
2018-04-23T14:29:39.561Z,95818.46
2018-04-23T14:32:07.305Z,95818.65
2018-04-23T14:34:34.887Z,95804.51
2018-04-23T14:37:02.497Z,95814.66
2018-04-23T14:39:30.151Z,95814.20
2018-04-23T14:41:57.680Z,95811.03
2018-04-23T14:44:25.222Z,95803.89
2018-04-23T14:46:52.737Z,95799.50
2018-04-23T14:49:20.959Z,95800.14
2018-04-23T14:51:48.480Z,95794.08
2018-04-23T14:54:16.070Z,95790.42
2018-04-23T14:56:43.613Z,95786.95
2018-04-23T14:59:11.204Z,95789.08
2018-04-23T15:01:39.585Z,95787.84
2018-04-23T15:04:07.232Z,95788.89
2018-04-23T15:06:34.897Z,95787.33
2018-04-23T15:09:02.636Z,95790.70
2018-04-23T15:11:30.853Z,95790.94
2018-04-23T15:13:58.993Z,95793.86
2018-04-23T15:16:26.679Z,95792.26
2018-04-23T15:18:54.479Z,95783.31
2018-04-23T15:21:22.071Z,95783.66
2018-04-23T15:23:49.949Z,95786.78
2018-04-23T15:26:17.650Z,95781.11
2018-04-23T15:28:45.330Z,95778.95
2018-04-23T15:31:14.291Z,95787.34
2018-04-23T15:33:41.956Z,95785.51
2018-04-23T15:36:09.542Z,95789.70
2018-04-23T15:38:37.120Z,95785.34
2018-04-23T15:41:04.811Z,95789.55
2018-04-23T15:43:32.567Z,95787.72
2018-04-23T15:46:00.281Z,95789.03
2018-04-23T15:48:27.989Z,95788.55
2018-04-23T15:50:55.596Z,95789.62
2018-04-23T15:53:23.591Z,95785.80
2018-04-23T15:55:51.185Z,95784.44
2018-04-23T15:58:18.837Z,95791.81
2018-04-23T16:00:46.424Z,95787.20
2018-04-23T16:03:14.165Z,95788.61
2018-04-23T16:05:42.116Z,95788.28
2018-04-23T16:08:11.320Z,95792.41
2018-04-23T16:10:38.858Z,95791.27
2018-04-23T16:13:06.434Z,95792.25
2018-04-23T16:15:33.958Z,95785.95
2018-04-23T16:18:01.818Z,95789.23
2018-04-23T16:20:29.335Z,95785.22
2018-04-23T16:22:56.912Z,95789.20
2018-04-23T16:25:24.452Z,95793.94
2018-04-23T16:27:51.993Z,95788.84
2018-04-23T16:30:19.500Z,95796.70
2018-04-23T16:32:47.048Z,95788.93
2018-04-23T16:35:14.666Z,95795.38
2018-04-23T16:37:42.405Z,95797.43
2018-04-23T16:40:10.144Z,95800.48
2018-04-23T16:42:37.659Z,95797.56
2018-04-23T16:45:05.221Z,95800.06
2018-04-23T16:47:32.803Z,95802.00
2018-04-23T16:50:00.398Z,95802.91
2018-04-23T16:52:28.006Z,95798.66
2018-04-23T16:54:55.607Z,95809.39
2018-04-23T16:57:23.214Z,95813.41
2018-04-23T16:59:50.737Z,95812.05
2018-04-23T17:02:18.265Z,95812.55
2018-04-23T17:04:45.853Z,95811.64
2018-04-23T17:07:13.573Z,95814.16
2018-04-23T17:09:41.256Z,95815.80
2018-04-23T17:12:08.816Z,95820.27
2018-04-23T17:14:36.428Z,95813.08
2018-04-23T17:17:03.959Z,95812.17
2018-04-23T17:19:31.456Z,95811.22
2018-04-23T17:21:59.290Z,95813.38
2018-04-23T17:24:27.009Z,95815.02
2018-04-23T17:26:54.570Z,95822.74
2018-04-23T17:29:22.296Z,95825.29
2018-04-23T17:31:49.941Z,95830.45
2018-04-23T17:34:17.560Z,95833.08
2018-04-23T17:36:45.177Z,95836.41
2018-04-23T17:39:12.874Z,95843.38
2018-04-23T17:41:40.641Z,95842.20
2018-04-23T17:44:08.292Z,95850.73
2018-04-23T17:46:35.997Z,95853.56
2018-04-23T17:49:03.620Z,95853.56
2018-04-23T17:51:31.247Z,95856.19
2018-04-23T17:53:58.908Z,95851.88
2018-04-23T17:56:26.564Z,95856.52
2018-04-23T17:58:54.487Z,95862.47
2018-04-23T18:01:22.102Z,95875.16
2018-04-23T18:03:54.864Z,95878.58
2018-04-23T18:06:22.518Z,95884.23
2018-04-23T18:08:50.110Z,95888.84
2018-04-23T18:11:18.373Z,95894.68
2018-04-23T18:13:45.976Z,95896.80
2018-04-23T18:16:13.562Z,95903.64
2018-04-23T18:18:41.228Z,95904.20
2018-04-23T18:21:08.905Z,95912.48
2018-04-23T18:23:36.792Z,95917.56
2018-04-23T18:26:04.556Z,95917.92
2018-04-23T18:28:32.144Z,95918.30
2018-04-23T18:30:59.766Z,95926.52
2018-04-23T18:33:44.984Z,95926.66
2018-04-23T18:36:12.635Z,95928.50
2018-04-23T18:38:40.225Z,95928.50
2018-04-23T18:41:07.716Z,95943.97
2018-04-23T18:43:35.609Z,95948.04
2018-04-23T18:46:03.310Z,95953.23
2018-04-23T18:48:31.389Z,95954.88
2018-04-23T18:50:59.074Z,95963.62
2018-04-23T18:53:27.369Z,95962.52
2018-04-23T18:55:55.283Z,95965.03
2018-04-23T18:58:23.090Z,95966.88
2018-04-23T19:00:50.791Z,95969.27
2018-04-23T19:03:18.983Z,95971.20
2018-04-23T19:05:46.803Z,95969.46
2018-04-23T19:08:14.415Z,95968.77
2018-04-23T19:10:42.074Z,95976.19
2018-04-23T19:13:11.263Z,95972.00
2018-04-23T19:15:39.072Z,95978.42
2018-04-23T19:18:06.970Z,95982.85
2018-04-23T19:20:34.613Z,95984.32
2018-04-23T19:23:02.228Z,95984.42
2018-04-23T19:25:30.251Z,95984.29
2018-04-23T19:27:58.050Z,95977.80
2018-04-23T19:32:59.768Z,95977.94
2018-04-23T19:35:27.466Z,95971.77
2018-04-23T19:37:55.063Z,95970.22
2018-04-23T19:40:22.722Z,95966.33
2018-04-23T19:42:50.586Z,95962.88
2018-04-23T19:45:18.163Z,95963.48
2018-04-23T19:47:45.794Z,95959.16
2018-04-23T19:50:13.431Z,95969.02
2018-04-23T19:52:40.994Z,95975.44
2018-04-23T19:55:08.721Z,95976.97
2018-04-23T19:57:36.278Z,95981.80
2018-04-23T20:00:03.874Z,95981.38
2018-04-23T20:02:31.564Z,95985.88
2018-04-23T20:04:59.179Z,95980.73
2018-04-23T20:07:27.714Z,95982.91
2018-04-23T20:12:30.485Z,95981.57
2018-04-23T20:14:58.214Z,95988.13
2018-04-23T20:17:26.791Z,95991.33
2018-04-23T20:19:54.456Z,95993.42
2018-04-23T20:22:22.124Z,95993.48
2018-04-23T20:24:49.780Z,96001.75
2018-04-23T20:27:17.988Z,96005.22
2018-04-23T20:29:45.674Z,96000.77
2018-04-23T20:32:13.317Z,96006.75
2018-04-23T20:34:41.037Z,95995.73
2018-04-23T20:37:09.060Z,96017.88
2018-04-23T20:39:36.849Z,96029.07
2018-04-23T20:42:04.605Z,96032.22
2018-04-23T20:44:32.304Z,96039.39
2018-04-23T20:47:00.081Z,96050.42
2018-04-23T20:49:27.829Z,96060.86
2018-04-23T20:51:55.451Z,96072.12
2018-04-23T20:54:23.088Z,96073.16
2018-04-23T20:59:40.933Z,96075.69
2018-04-23T21:02:08.557Z,96070.91
2018-04-23T21:04:36.255Z,96073.38
2018-04-23T21:07:03.952Z,96075.40
2018-04-23T21:09:31.671Z,96086.13
2018-04-23T21:11:59.336Z,96089.83
2018-04-23T21:14:27.067Z,96092.53
2018-04-23T21:16:54.888Z,96089.25
2018-04-23T21:19:22.500Z,96101.45
2018-04-23T21:21:50.025Z,96104.34
2018-04-23T21:26:51.456Z,96119.34
2018-04-23T21:29:19.136Z,96120.42
2018-04-23T21:31:46.835Z,96129.80
2018-04-23T21:34:14.361Z,96126.73
2018-04-23T21:36:43.342Z,96128.39
2018-04-23T21:39:12.283Z,96136.54
2018-04-23T21:41:39.834Z,96132.80
2018-04-23T21:44:07.366Z,96137.90
2018-04-23T21:46:34.896Z,96137.70
2018-04-23T21:49:02.438Z,96140.41
2018-04-23T21:51:31.102Z,96144.06
2018-04-23T21:53:58.681Z,96140.77
2018-04-23T21:56:26.231Z,96141.97
2018-04-23T21:58:53.878Z,96147.67
2018-04-23T22:01:21.519Z,96147.50
2018-04-23T22:03:50.158Z,96144.19
2018-04-23T22:06:17.900Z,96149.34
2018-04-23T22:08:45.487Z,96155.89
2018-04-23T22:13:46.840Z,96159.05
2018-04-23T22:16:14.468Z,96159.63
2018-04-23T22:18:42.090Z,96159.46
2018-04-23T22:21:11.981Z,96160.75
2018-04-23T22:23:39.564Z,96164.89
2018-04-23T22:26:07.130Z,96164.02
2018-04-23T22:28:34.744Z,96166.13
2018-04-23T22:31:02.350Z,96172.20
2018-04-23T22:33:29.908Z,96165.88
2018-04-23T22:35:57.476Z,96173.27
2018-04-23T22:38:25.240Z,96170.26
2018-04-23T22:40:54.191Z,96173.33
2018-04-23T22:43:24.846Z,96175.52
2018-04-23T22:46:14.041Z,96171.33
2018-04-23T22:48:43.731Z,96172.53
2018-04-23T22:51:15.436Z,96178.98
2018-04-23T22:53:43.030Z,96177.93
2018-04-23T22:56:13.151Z,96169.68
2018-04-23T22:58:41.174Z,96174.37
2018-04-23T23:01:08.763Z,96176.01
2018-04-23T23:03:36.464Z,96178.60
2018-04-23T23:06:03.985Z,96171.47
2018-04-23T23:08:31.520Z,96181.17
2018-04-23T23:10:59.046Z,96172.58
2018-04-23T23:13:27.100Z,96171.02
2018-04-23T23:15:54.686Z,96171.20
2018-04-23T23:18:22.184Z,96173.95
2018-04-23T23:20:49.673Z,96176.03
2018-04-23T23:23:17.321Z,96166.59
2018-04-23T23:25:44.812Z,96166.72
2018-04-23T23:28:12.321Z,96167.17
2018-04-23T23:30:39.857Z,96173.44
2018-04-23T23:33:07.497Z,96167.53
2018-04-23T23:35:35.063Z,96170.00
2018-04-23T23:38:02.624Z,96168.91
2018-04-23T23:40:30.175Z,96170.23
2018-04-23T23:42:57.741Z,96163.33
2018-04-23T23:45:25.336Z,96160.78
2018-04-23T23:47:52.934Z,96156.61
2018-04-23T23:50:20.468Z,96150.58
2018-04-23T23:52:47.972Z,96146.95
2018-04-23T23:55:15.907Z,96143.70
2018-04-23T23:57:43.393Z,96140.52
